createdAt,value
2018-08-12T00:00:22.327Z,0.00
2018-08-12T00:01:22.325Z,0.00
2018-08-12T00:02:22.319Z,0.00
2018-08-12T00:03:22.310Z,0.00
2018-08-12T00:04:22.304Z,0.00
2018-08-12T00:05:22.290Z,0.00
2018-08-12T00:06:22.281Z,0.00
2018-08-12T00:07:22.269Z,0.00
2018-08-12T00:08:22.265Z,0.00
2018-08-12T00:09:22.251Z,0.00
2018-08-12T00:10:22.248Z,0.00
2018-08-12T00:11:22.236Z,0.00
2018-08-12T00:12:22.229Z,0.00
2018-08-12T00:13:22.211Z,0.00
2018-08-12T00:14:22.211Z,0.00
2018-08-12T00:15:22.218Z,0.00
2018-08-12T00:16:22.195Z,0.00
2018-08-12T00:17:22.191Z,0.00
2018-08-12T00:18:22.171Z,0.00
2018-08-12T00:19:22.166Z,0.00
2018-08-12T00:20:22.154Z,0.00
2018-08-12T00:21:22.149Z,0.00
2018-08-12T00:22:22.135Z,0.00
2018-08-12T00:23:22.125Z,0.00
2018-08-12T00:24:22.115Z,0.00
2018-08-12T00:25:22.113Z,0.00
2018-08-12T00:26:22.102Z,0.00
2018-08-12T00:27:22.092Z,0.00
2018-08-12T00:28:22.084Z,0.00
2018-08-12T00:29:22.074Z,0.00
2018-08-12T00:30:22.063Z,0.00
2018-08-12T00:31:22.066Z,0.00
2018-08-12T00:32:22.047Z,0.00
2018-08-12T00:33:22.039Z,0.00
2018-08-12T00:34:22.027Z,0.00
2018-08-12T00:35:22.020Z,0.00
2018-08-12T00:36:22.009Z,0.00
2018-08-12T00:37:21.999Z,0.00
2018-08-12T00:38:21.992Z,0.00
2018-08-12T00:39:21.985Z,0.00
2018-08-12T00:40:21.974Z,0.00
2018-08-12T00:41:21.968Z,0.00
2018-08-12T00:42:21.954Z,0.00
2018-08-12T00:43:21.947Z,0.00
2018-08-12T00:44:21.938Z,0.00
2018-08-12T00:45:21.928Z,0.00
2018-08-12T00:46:21.917Z,0.00
2018-08-12T00:47:21.909Z,0.00
2018-08-12T00:48:21.897Z,0.00
2018-08-12T00:49:21.887Z,0.00
2018-08-12T00:50:21.885Z,0.00
2018-08-12T00:51:21.875Z,0.00
2018-08-12T00:52:21.863Z,0.00
2018-08-12T00:53:21.862Z,0.00
2018-08-12T00:54:21.854Z,0.00
2018-08-12T00:55:21.841Z,0.00
2018-08-12T00:56:21.822Z,0.00
2018-08-12T00:57:21.827Z,0.00
2018-08-12T00:58:21.809Z,0.00
2018-08-12T00:59:21.801Z,0.00
2018-08-12T01:00:21.791Z,0.00
2018-08-12T01:01:21.783Z,0.00
2018-08-12T01:02:21.772Z,0.00
2018-08-12T01:03:21.762Z,0.00
2018-08-12T01:04:21.764Z,0.00
2018-08-12T01:05:21.747Z,0.00
2018-08-12T01:06:21.736Z,0.00
2018-08-12T01:07:21.728Z,0.00
2018-08-12T01:08:21.712Z,0.00
2018-08-12T01:09:21.710Z,0.00
2018-08-12T01:10:21.697Z,0.00
2018-08-12T01:11:21.687Z,0.00
2018-08-12T01:12:21.679Z,0.00
2018-08-12T01:13:21.667Z,0.00
2018-08-12T01:14:21.667Z,0.00
2018-08-12T01:15:21.653Z,0.00
2018-08-12T01:16:21.646Z,0.00
2018-08-12T01:17:21.633Z,0.00
2018-08-12T01:18:21.626Z,0.00
2018-08-12T01:19:21.616Z,0.00
2018-08-12T01:20:21.608Z,0.00
2018-08-12T01:21:21.592Z,0.00
2018-08-12T01:22:21.594Z,0.00
2018-08-12T01:23:21.582Z,0.00
2018-08-12T01:24:21.568Z,0.00
2018-08-12T01:25:21.560Z,0.00
2018-08-12T01:26:21.549Z,0.00
2018-08-12T01:27:21.543Z,0.00
2018-08-12T01:28:21.538Z,0.00
2018-08-12T01:29:21.523Z,0.00
2018-08-12T01:30:21.510Z,0.00
2018-08-12T01:31:21.512Z,0.00
2018-08-12T01:32:21.496Z,0.00
2018-08-12T01:33:21.488Z,0.00
2018-08-12T01:34:21.483Z,0.00
2018-08-12T01:35:21.469Z,0.00
2018-08-12T01:36:21.462Z,0.00
2018-08-12T01:37:21.457Z,0.00
2018-08-12T01:38:21.438Z,0.00
2018-08-12T01:39:21.432Z,0.00
2018-08-12T01:40:21.425Z,0.00
2018-08-12T01:41:21.412Z,0.00
2018-08-12T01:42:21.407Z,0.00
2018-08-12T01:43:21.401Z,0.00
2018-08-12T01:44:21.388Z,0.00
2018-08-12T01:45:21.378Z,0.00
2018-08-12T01:46:21.374Z,0.00
2018-08-12T01:47:21.359Z,0.00
2018-08-12T01:48:21.353Z,0.00
2018-08-12T01:49:21.339Z,0.00
2018-08-12T01:50:21.329Z,0.00
2018-08-12T01:51:21.323Z,0.00
2018-08-12T01:52:21.309Z,0.00
2018-08-12T01:53:21.301Z,0.00
2018-08-12T01:54:21.291Z,0.00
2018-08-12T01:55:21.288Z,0.00
2018-08-12T01:56:21.275Z,0.00
2018-08-12T01:57:21.264Z,0.00
2018-08-12T01:58:21.255Z,0.00
2018-08-12T01:59:21.248Z,0.00
2018-08-12T02:00:21.240Z,0.00
2018-08-12T02:01:21.226Z,0.00
2018-08-12T02:02:21.215Z,0.00
2018-08-12T02:03:21.205Z,0.00
2018-08-12T02:04:21.204Z,0.00
2018-08-12T02:05:21.192Z,0.00
2018-08-12T02:06:21.184Z,0.00
2018-08-12T02:07:21.170Z,0.00
2018-08-12T02:08:21.156Z,0.00
2018-08-12T02:09:21.148Z,0.00
2018-08-12T02:10:21.146Z,0.00
2018-08-12T02:11:21.136Z,0.00
2018-08-12T02:12:21.123Z,0.00
2018-08-12T02:13:21.121Z,0.00
2018-08-12T02:14:21.107Z,0.00
2018-08-12T02:15:21.100Z,0.00
2018-08-12T02:16:21.083Z,0.00
2018-08-12T02:17:21.078Z,0.00
2018-08-12T02:18:21.071Z,0.00
2018-08-12T02:19:21.056Z,0.00
2018-08-12T02:20:21.050Z,0.00
2018-08-12T02:21:21.038Z,0.00
2018-08-12T02:22:21.028Z,0.00
2018-08-12T02:23:21.029Z,0.00
2018-08-12T02:24:21.012Z,0.00
2018-08-12T02:25:21.003Z,0.00
2018-08-12T02:26:20.992Z,0.00
2018-08-12T02:27:20.986Z,0.00
2018-08-12T02:28:20.984Z,0.00
2018-08-12T02:29:20.965Z,0.00
2018-08-12T02:30:20.954Z,0.00
2018-08-12T02:31:20.943Z,0.00
2018-08-12T02:32:20.931Z,0.00
2018-08-12T02:33:20.924Z,0.00
2018-08-12T02:34:20.918Z,0.00
2018-08-12T02:35:20.913Z,0.00
2018-08-12T02:36:20.898Z,0.00
2018-08-12T02:37:20.888Z,0.00
2018-08-12T02:38:20.880Z,0.00
2018-08-12T02:39:20.871Z,0.00
2018-08-12T02:40:20.855Z,0.00
2018-08-12T02:41:20.859Z,0.00
2018-08-12T02:42:20.841Z,0.00
2018-08-12T02:43:20.835Z,0.00
2018-08-12T02:44:20.826Z,0.00
2018-08-12T02:45:20.813Z,0.00
2018-08-12T02:46:20.808Z,0.00
2018-08-12T02:47:20.789Z,0.00
2018-08-12T02:48:20.786Z,0.00
2018-08-12T02:49:20.776Z,0.00
2018-08-12T02:50:20.764Z,0.00
2018-08-12T02:51:20.772Z,0.00
2018-08-12T02:52:20.743Z,0.00
2018-08-12T02:53:20.729Z,0.00
2018-08-12T02:54:20.727Z,0.00
2018-08-12T02:55:20.724Z,0.00
2018-08-12T02:56:20.711Z,0.00
2018-08-12T02:57:20.703Z,0.00
2018-08-12T02:58:20.687Z,0.00
2018-08-12T02:59:20.683Z,0.00
2018-08-12T03:00:20.669Z,0.00
2018-08-12T03:01:20.657Z,0.00
2018-08-12T03:02:20.663Z,0.00
2018-08-12T03:03:20.638Z,0.00
2018-08-12T03:04:20.637Z,0.00
2018-08-12T03:05:20.626Z,0.00
2018-08-12T03:06:20.612Z,0.00
2018-08-12T03:07:20.607Z,0.00
2018-08-12T03:08:20.589Z,0.00
2018-08-12T03:09:20.579Z,0.00
2018-08-12T03:10:20.577Z,0.00
2018-08-12T03:11:20.565Z,0.00
2018-08-12T03:12:20.553Z,0.00
2018-08-12T03:13:20.546Z,0.00
2018-08-12T03:14:20.538Z,0.00
2018-08-12T03:15:20.524Z,0.00
2018-08-12T03:16:20.519Z,0.00
2018-08-12T03:17:20.511Z,0.00
2018-08-12T03:18:20.498Z,0.00
2018-08-12T03:19:20.490Z,0.00
2018-08-12T03:20:20.476Z,0.00
2018-08-12T03:21:20.467Z,0.00
2018-08-12T03:22:20.487Z,0.00
2018-08-12T03:23:20.455Z,0.00
2018-08-12T03:24:20.440Z,0.00
2018-08-12T03:25:20.428Z,0.00
2018-08-12T03:26:20.424Z,0.00
2018-08-12T03:27:20.415Z,0.00
2018-08-12T03:28:20.400Z,0.00
2018-08-12T03:29:20.391Z,0.00
2018-08-12T03:30:20.442Z,0.00
2018-08-12T03:31:20.368Z,0.00
2018-08-12T03:32:20.365Z,0.00
2018-08-12T03:33:20.353Z,0.00
2018-08-12T03:34:20.346Z,0.00
2018-08-12T03:35:20.332Z,0.00
2018-08-12T03:36:20.326Z,0.00
2018-08-12T03:37:20.316Z,0.00
2018-08-12T03:38:20.306Z,0.00
2018-08-12T03:39:20.296Z,0.00
2018-08-12T03:40:20.291Z,0.00
2018-08-12T03:41:20.275Z,0.00
2018-08-12T03:42:20.266Z,0.00
2018-08-12T03:43:20.252Z,0.00
2018-08-12T03:44:20.246Z,0.00
2018-08-12T03:45:20.232Z,0.00
2018-08-12T03:46:20.230Z,0.00
2018-08-12T03:47:20.218Z,0.00
2018-08-12T03:48:20.208Z,0.00
2018-08-12T03:49:20.204Z,0.00
2018-08-12T03:50:20.191Z,0.00
2018-08-12T03:51:20.181Z,0.00
2018-08-12T03:52:20.169Z,0.00
2018-08-12T03:53:20.164Z,0.00
2018-08-12T03:54:20.151Z,0.00
2018-08-12T03:55:20.145Z,0.00
2018-08-12T03:56:20.134Z,0.00
2018-08-12T03:57:20.123Z,0.00
2018-08-12T03:58:20.138Z,4.00
2018-08-12T03:59:20.104Z,0.00
2018-08-12T04:00:20.092Z,0.00
2018-08-12T04:01:20.084Z,0.00
2018-08-12T04:02:20.086Z,4.00
2018-08-12T04:03:20.062Z,0.00
2018-08-12T04:04:20.059Z,4.00
2018-08-12T04:05:20.046Z,4.00
2018-08-12T04:06:20.037Z,4.00
2018-08-12T04:07:20.027Z,4.00
2018-08-12T04:08:20.024Z,4.00
2018-08-12T04:09:20.007Z,4.00
2018-08-12T04:10:19.995Z,4.00
2018-08-12T04:11:19.991Z,4.00
2018-08-12T04:12:19.981Z,8.00
2018-08-12T04:13:19.967Z,8.00
2018-08-12T04:14:19.958Z,8.00
2018-08-12T04:15:19.954Z,8.00
2018-08-12T04:16:19.940Z,12.00
2018-08-12T04:17:19.935Z,12.00
2018-08-12T04:18:19.920Z,12.00
2018-08-12T04:19:19.912Z,12.00
2018-08-12T04:20:19.898Z,12.00
2018-08-12T04:21:19.894Z,16.00
2018-08-12T04:22:19.891Z,16.00
2018-08-12T04:23:19.871Z,20.00
2018-08-12T04:24:19.869Z,20.00
2018-08-12T04:25:19.851Z,16.00
2018-08-12T04:26:19.843Z,20.00
2018-08-12T04:27:19.833Z,24.00
2018-08-12T04:28:19.823Z,24.00
2018-08-12T04:29:19.815Z,24.00
2018-08-12T04:30:19.808Z,24.00
2018-08-12T04:31:19.794Z,24.00
2018-08-12T04:32:19.786Z,28.00
2018-08-12T04:33:19.771Z,28.00
2018-08-12T04:34:19.768Z,32.00
2018-08-12T04:35:19.752Z,32.00
2018-08-12T04:36:19.746Z,32.00
2018-08-12T04:37:19.736Z,32.00
2018-08-12T04:38:19.730Z,36.00
2018-08-12T04:39:19.712Z,32.00
2018-08-12T04:40:19.703Z,36.00
2018-08-12T04:41:19.712Z,36.00
2018-08-12T04:42:19.694Z,40.00
2018-08-12T04:43:19.679Z,40.00
2018-08-12T04:44:19.668Z,44.00
2018-08-12T04:45:19.656Z,40.00
2018-08-12T04:46:19.649Z,44.00
2018-08-12T04:47:19.637Z,44.00
2018-08-12T04:48:19.635Z,44.00
2018-08-12T04:49:19.622Z,44.00
2018-08-12T04:50:19.610Z,48.00
2018-08-12T04:51:19.599Z,44.00
2018-08-12T04:52:19.591Z,48.00
2018-08-12T04:53:19.582Z,48.00
2018-08-12T04:54:19.569Z,52.00
2018-08-12T04:55:19.563Z,52.00
2018-08-12T04:56:19.552Z,52.00
2018-08-12T04:57:19.543Z,52.00
2018-08-12T04:58:19.528Z,56.00
2018-08-12T04:59:19.520Z,56.00
2018-08-12T05:00:19.510Z,56.00
2018-08-12T05:01:19.506Z,56.00
2018-08-12T05:02:19.497Z,60.00
2018-08-12T05:03:19.487Z,56.00
2018-08-12T05:04:19.475Z,60.00
2018-08-12T05:05:19.468Z,60.00
2018-08-12T05:06:19.480Z,60.00
2018-08-12T05:07:19.444Z,60.00
2018-08-12T05:08:19.437Z,64.00
2018-08-12T05:09:19.424Z,60.00
2018-08-12T05:10:19.418Z,64.00
2018-08-12T05:11:19.403Z,64.00
2018-08-12T05:12:19.394Z,64.00
2018-08-12T05:13:19.398Z,68.00
2018-08-12T05:14:19.377Z,68.00
2018-08-12T05:15:19.364Z,68.00
2018-08-12T05:16:19.357Z,68.00
2018-08-12T05:17:19.357Z,72.00
2018-08-12T05:18:19.338Z,72.00
2018-08-12T05:19:19.327Z,68.00
2018-08-12T05:20:19.316Z,72.00
2018-08-12T05:21:19.310Z,72.00
2018-08-12T05:22:19.303Z,76.00
2018-08-12T05:23:19.290Z,72.00
2018-08-12T05:24:19.289Z,76.00
2018-08-12T05:25:19.275Z,76.00
2018-08-12T05:26:19.260Z,76.00
2018-08-12T05:27:19.252Z,76.00
2018-08-12T05:28:19.244Z,76.00
2018-08-12T05:29:19.231Z,80.00
2018-08-12T05:30:19.220Z,80.00
2018-08-12T05:31:19.210Z,80.00
2018-08-12T05:32:19.203Z,80.00
2018-08-12T05:33:19.190Z,84.00
2018-08-12T05:34:19.189Z,84.00
2018-08-12T05:35:19.176Z,80.00
2018-08-12T05:36:19.165Z,84.00
2018-08-12T05:37:19.160Z,88.00
2018-08-12T05:38:19.145Z,84.00
2018-08-12T05:39:19.138Z,88.00
2018-08-12T05:40:19.130Z,88.00
2018-08-12T05:41:19.115Z,88.00
2018-08-12T05:42:19.104Z,88.00
2018-08-12T05:43:19.094Z,88.00
2018-08-12T05:44:19.090Z,88.00
2018-08-12T05:45:19.110Z,92.00
2018-08-12T05:46:19.066Z,92.00
2018-08-12T05:47:19.055Z,92.00
2018-08-12T05:48:19.046Z,96.00
2018-08-12T05:49:19.043Z,92.00
2018-08-12T05:50:19.029Z,92.00
2018-08-12T05:51:19.063Z,96.00
2018-08-12T05:52:19.009Z,96.00
2018-08-12T05:53:19.005Z,96.00
2018-08-12T05:54:18.990Z,96.00
2018-08-12T05:55:18.982Z,96.00
2018-08-12T05:56:18.972Z,96.00
2018-08-12T05:57:19.008Z,100.00
2018-08-12T05:58:18.953Z,100.00
2018-08-12T05:59:18.945Z,100.00
2018-08-12T06:00:18.939Z,104.00
2018-08-12T06:01:18.924Z,100.00
2018-08-12T06:02:18.918Z,104.00
2018-08-12T06:03:18.906Z,104.00
2018-08-12T06:04:18.908Z,108.00
2018-08-12T06:05:18.887Z,108.00
2018-08-12T06:06:18.881Z,108.00
2018-08-12T06:07:18.865Z,108.00
2018-08-12T06:08:18.854Z,108.00
2018-08-12T06:09:18.847Z,112.00
2018-08-12T06:10:18.837Z,112.00
2018-08-12T06:11:18.829Z,112.00
2018-08-12T06:12:18.815Z,112.00
2018-08-12T06:13:18.809Z,116.00
2018-08-12T06:14:18.800Z,116.00
2018-08-12T06:15:18.796Z,120.00
2018-08-12T06:16:18.780Z,120.00
2018-08-12T06:17:18.774Z,120.00
2018-08-12T06:18:18.764Z,120.00
2018-08-12T06:19:18.747Z,124.00
2018-08-12T06:20:18.737Z,124.00
2018-08-12T06:21:18.733Z,124.00
2018-08-12T06:22:18.724Z,128.00
2018-08-12T06:23:18.712Z,136.00
2018-08-12T06:24:18.703Z,160.00
2018-08-12T06:25:18.696Z,256.00
2018-08-12T06:26:18.684Z,368.00
2018-08-12T06:27:18.672Z,392.00
2018-08-12T06:28:18.664Z,392.00
2018-08-12T06:29:18.654Z,400.00
2018-08-12T06:30:18.645Z,404.00
2018-08-12T06:31:18.634Z,404.00
2018-08-12T06:32:18.627Z,412.00
2018-08-12T06:33:18.617Z,412.00
2018-08-12T06:34:18.637Z,420.00
2018-08-12T06:35:18.605Z,432.00
2018-08-12T06:36:18.590Z,432.00
2018-08-12T06:37:18.582Z,440.00
2018-08-12T06:38:18.571Z,440.00
2018-08-12T06:39:18.562Z,448.00
2018-08-12T06:40:18.548Z,460.00
2018-08-12T06:41:18.548Z,460.00
2018-08-12T06:42:18.533Z,468.00
2018-08-12T06:43:18.517Z,480.00
2018-08-12T06:44:18.514Z,480.00
2018-08-12T06:45:18.508Z,480.00
2018-08-12T06:46:18.531Z,488.00
2018-08-12T06:47:18.489Z,492.00
2018-08-12T06:48:18.480Z,504.00
2018-08-12T06:49:18.471Z,512.00
2018-08-12T06:50:18.460Z,512.00
2018-08-12T06:51:18.452Z,520.00
2018-08-12T06:52:18.444Z,528.00
2018-08-12T06:53:18.430Z,532.00
2018-08-12T06:54:18.425Z,536.00
2018-08-12T06:55:18.415Z,548.00
2018-08-12T06:56:18.409Z,560.00
2018-08-12T06:57:18.400Z,568.00
2018-08-12T06:58:18.392Z,572.00
2018-08-12T06:59:18.379Z,568.00
2018-08-12T07:00:18.407Z,584.00
2018-08-12T07:01:18.361Z,592.00
2018-08-12T07:02:18.355Z,584.00
2018-08-12T07:03:18.347Z,584.00
2018-08-12T07:04:18.376Z,596.00
2018-08-12T07:05:18.332Z,620.00
2018-08-12T07:06:18.322Z,636.00
2018-08-12T07:07:18.312Z,636.00
2018-08-12T07:08:18.316Z,604.00
2018-08-12T07:09:18.294Z,644.00
2018-08-12T07:10:18.292Z,572.00
2018-08-12T07:11:18.275Z,656.00
2018-08-12T07:12:18.270Z,660.00
2018-08-12T07:13:18.264Z,692.00
2018-08-12T07:14:18.281Z,468.00
2018-08-12T07:15:18.250Z,540.00
2018-08-12T07:16:18.239Z,552.00
2018-08-12T07:17:18.230Z,432.00
2018-08-12T07:18:18.222Z,592.00
2018-08-12T07:19:18.209Z,496.00
2018-08-12T07:20:18.198Z,720.00
2018-08-12T07:21:18.214Z,292.00
2018-08-12T07:22:18.186Z,648.00
2018-08-12T07:23:18.181Z,696.00
2018-08-12T07:24:18.175Z,744.00
2018-08-12T07:25:18.172Z,760.00
2018-08-12T07:26:18.158Z,772.00
2018-08-12T07:27:18.146Z,768.00
2018-08-12T07:28:18.134Z,732.00
2018-08-12T07:29:18.130Z,788.00
2018-08-12T07:30:18.126Z,788.00
2018-08-12T07:31:18.112Z,792.00
2018-08-12T07:32:18.103Z,824.00
2018-08-12T07:33:18.105Z,828.00
2018-08-12T07:34:18.092Z,820.00
2018-08-12T07:35:18.085Z,860.00
2018-08-12T07:36:18.077Z,864.00
2018-08-12T07:37:18.069Z,880.00
2018-08-12T07:38:18.059Z,900.00
2018-08-12T07:39:18.056Z,916.00
2018-08-12T07:40:18.050Z,916.00
2018-08-12T07:41:18.032Z,924.00
2018-08-12T07:42:18.029Z,940.00
2018-08-12T07:43:18.022Z,956.00
2018-08-12T07:44:18.010Z,976.00
2018-08-12T07:45:18.004Z,972.00
2018-08-12T07:46:17.998Z,984.00
2018-08-12T07:47:17.990Z,1000.00
2018-08-12T07:48:17.979Z,1008.00
2018-08-12T07:49:17.971Z,1012.00
2018-08-12T07:50:17.968Z,1068.00
2018-08-12T07:51:17.965Z,1072.00
2018-08-12T07:52:17.952Z,1084.00
2018-08-12T07:53:17.946Z,1088.00
2018-08-12T07:54:17.936Z,936.00
2018-08-12T07:55:17.933Z,972.00
2018-08-12T07:56:17.932Z,620.00
2018-08-12T07:57:17.918Z,952.00
2018-08-12T07:58:17.914Z,1056.00
2018-08-12T07:59:17.901Z,408.00
2018-08-12T08:00:17.895Z,544.00
2018-08-12T08:01:17.889Z,1152.00
2018-08-12T08:02:17.881Z,1164.00
2018-08-12T08:03:17.875Z,1180.00
2018-08-12T08:04:17.869Z,1168.00
2018-08-12T08:05:17.861Z,1136.00
2018-08-12T08:06:17.858Z,420.00
2018-08-12T08:07:17.849Z,876.00
2018-08-12T08:08:17.841Z,700.00
2018-08-12T08:09:17.832Z,1180.00
2018-08-12T08:10:17.824Z,1180.00
2018-08-12T08:11:17.816Z,1196.00
2018-08-12T08:12:17.810Z,1208.00
2018-08-12T08:13:17.800Z,1200.00
2018-08-12T08:14:17.795Z,1192.00
2018-08-12T08:15:17.797Z,1216.00
2018-08-12T08:16:17.786Z,1244.00
2018-08-12T08:17:17.777Z,1264.00
2018-08-12T08:18:17.773Z,1276.00
2018-08-12T08:19:17.763Z,1300.00
2018-08-12T08:20:17.755Z,1320.00
2018-08-12T08:21:17.752Z,1336.00
2018-08-12T08:22:17.741Z,1348.00
2018-08-12T08:23:17.734Z,1352.00
2018-08-12T08:24:17.728Z,1352.00
2018-08-12T08:25:17.751Z,1356.00
2018-08-12T08:26:17.720Z,1356.00
2018-08-12T08:27:17.707Z,1352.00
2018-08-12T08:28:17.711Z,1372.00
2018-08-12T08:29:17.698Z,1384.00
2018-08-12T08:30:17.693Z,1388.00
2018-08-12T08:31:17.757Z,1400.00
2018-08-12T08:32:17.749Z,1416.00
2018-08-12T08:33:17.670Z,1428.00
2018-08-12T08:34:17.676Z,1436.00
2018-08-12T08:35:17.656Z,1452.00
2018-08-12T08:36:17.650Z,1440.00
2018-08-12T08:37:17.651Z,1460.00
2018-08-12T08:38:17.635Z,1468.00
2018-08-12T08:39:17.637Z,1468.00
2018-08-12T08:40:17.625Z,1472.00
2018-08-12T08:41:17.617Z,1476.00
2018-08-12T08:42:17.645Z,1480.00
2018-08-12T08:43:17.605Z,1480.00
2018-08-12T08:44:17.600Z,1488.00
2018-08-12T08:45:17.597Z,1488.00
2018-08-12T08:46:17.589Z,1496.00
2018-08-12T08:47:17.580Z,1456.00
2018-08-12T08:48:17.574Z,1484.00
2018-08-12T08:49:17.564Z,1508.00
2018-08-12T08:50:17.558Z,1484.00
2018-08-12T08:51:17.552Z,1492.00
2018-08-12T08:52:17.553Z,1468.00
2018-08-12T08:53:17.547Z,1460.00
2018-08-12T08:54:17.537Z,1468.00
2018-08-12T08:55:17.541Z,1464.00
2018-08-12T08:56:17.527Z,1440.00
2018-08-12T08:57:17.517Z,1332.00
2018-08-12T08:58:17.510Z,1448.00
2018-08-12T08:59:17.504Z,1396.00
2018-08-12T09:00:17.501Z,1472.00
2018-08-12T09:01:17.540Z,1472.00
2018-08-12T09:02:17.489Z,1476.00
2018-08-12T09:03:17.480Z,1484.00
2018-08-12T09:04:17.473Z,1484.00
2018-08-12T09:05:17.471Z,1476.00
2018-08-12T09:06:17.465Z,1476.00
2018-08-12T09:07:17.462Z,1488.00
2018-08-12T09:08:17.549Z,1492.00
2018-08-12T09:09:17.610Z,1500.00
2018-08-12T09:10:17.438Z,1508.00
2018-08-12T09:11:17.434Z,1532.00
2018-08-12T09:12:17.426Z,1528.00
2018-08-12T09:13:17.416Z,1544.00
2018-08-12T09:14:17.414Z,1556.00
2018-08-12T09:15:17.412Z,1512.00
2018-08-12T09:16:17.400Z,492.00
2018-08-12T09:17:17.400Z,576.00
2018-08-12T09:18:17.479Z,772.00
2018-08-12T09:19:17.392Z,500.00
2018-08-12T09:20:17.379Z,556.00
2018-08-12T09:21:17.377Z,1596.00
2018-08-12T09:22:17.369Z,1624.00
2018-08-12T09:23:17.359Z,1112.00
2018-08-12T09:24:17.363Z,1396.00
2018-08-12T09:25:17.355Z,1564.00
2018-08-12T09:26:17.342Z,576.00
2018-08-12T09:27:17.340Z,1620.00
2018-08-12T09:28:17.330Z,1592.00
2018-08-12T09:29:17.327Z,1564.00
2018-08-12T09:30:17.325Z,1504.00
2018-08-12T09:31:17.311Z,1648.00
2018-08-12T09:32:17.311Z,604.00
2018-08-12T09:33:17.307Z,536.00
2018-08-12T09:34:17.292Z,1320.00
2018-08-12T09:35:17.298Z,532.00
2018-08-12T09:36:17.287Z,572.00
2018-08-12T09:37:17.278Z,1632.00
2018-08-12T09:38:17.274Z,1608.00
2018-08-12T09:39:17.275Z,564.00
2018-08-12T09:40:17.260Z,852.00
2018-08-12T09:41:17.260Z,564.00
2018-08-12T09:42:17.255Z,588.00
2018-08-12T09:43:17.249Z,636.00
2018-08-12T09:44:17.239Z,1684.00
2018-08-12T09:45:17.233Z,820.00
2018-08-12T09:46:17.227Z,588.00
2018-08-12T09:47:17.227Z,560.00
2018-08-12T09:48:17.217Z,576.00
2018-08-12T09:49:17.215Z,1572.00
2018-08-12T09:50:17.212Z,760.00
2018-08-12T09:51:17.204Z,600.00
2018-08-12T09:52:17.193Z,1216.00
2018-08-12T09:53:17.191Z,1544.00
2018-08-12T09:54:17.180Z,1540.00
2018-08-12T09:55:17.184Z,1536.00
2018-08-12T09:56:17.172Z,1584.00
2018-08-12T09:57:17.162Z,1600.00
2018-08-12T09:58:17.156Z,1596.00
2018-08-12T09:59:17.155Z,1592.00
2018-08-12T10:00:17.174Z,1580.00
2018-08-12T10:01:17.143Z,1200.00
2018-08-12T10:02:17.132Z,1164.00
2018-08-12T10:03:17.128Z,852.00
2018-08-12T10:04:17.121Z,1640.00
2018-08-12T10:05:17.114Z,1664.00
2018-08-12T10:06:17.111Z,812.00
2018-08-12T10:07:17.111Z,716.00
2018-08-12T10:08:17.098Z,1112.00
2018-08-12T10:09:17.096Z,1644.00
2018-08-12T10:10:17.095Z,708.00
2018-08-12T10:11:17.082Z,608.00
2018-08-12T10:12:17.079Z,884.00
2018-08-12T10:13:17.077Z,640.00
2018-08-12T10:14:17.070Z,572.00
2018-08-12T10:15:17.060Z,580.00
2018-08-12T10:16:17.055Z,640.00
2018-08-12T10:17:17.052Z,728.00
2018-08-12T10:18:17.046Z,672.00
2018-08-12T10:19:17.038Z,676.00
2018-08-12T10:20:17.039Z,1172.00
2018-08-12T10:21:17.030Z,1172.00
2018-08-12T10:22:17.023Z,1720.00
2018-08-12T10:23:17.019Z,1748.00
2018-08-12T10:24:17.011Z,1724.00
2018-08-12T10:25:17.007Z,1728.00
2018-08-12T10:26:17.003Z,1752.00
2018-08-12T10:27:17.001Z,1736.00
2018-08-12T10:28:16.996Z,1744.00
2018-08-12T10:29:17.008Z,692.00
2018-08-12T10:30:16.978Z,884.00
2018-08-12T10:31:16.973Z,652.00
2018-08-12T10:32:16.968Z,640.00
2018-08-12T10:33:16.973Z,652.00
2018-08-12T10:34:16.954Z,616.00
2018-08-12T10:35:16.955Z,1800.00
2018-08-12T10:36:16.951Z,1080.00
2018-08-12T10:37:16.939Z,1744.00
2018-08-12T10:38:16.936Z,1768.00
2018-08-12T10:39:16.932Z,1752.00
2018-08-12T10:40:16.930Z,596.00
2018-08-12T10:41:16.922Z,776.00
2018-08-12T10:42:16.914Z,928.00
2018-08-12T10:43:16.916Z,704.00
2018-08-12T10:44:16.946Z,1132.00
2018-08-12T10:45:16.902Z,708.00
2018-08-12T10:46:16.895Z,1892.00
2018-08-12T10:47:16.890Z,824.00
2018-08-12T10:48:16.885Z,748.00
2018-08-12T10:49:16.881Z,1792.00
2018-08-12T10:50:16.876Z,1924.00
2018-08-12T10:51:16.871Z,1888.00
2018-08-12T10:52:16.861Z,764.00
2018-08-12T10:53:16.857Z,1124.00
2018-08-12T10:54:16.860Z,1240.00
2018-08-12T10:55:16.852Z,1964.00
2018-08-12T10:56:16.842Z,1960.00
2018-08-12T10:57:16.836Z,1920.00
2018-08-12T10:58:16.844Z,1968.00
2018-08-12T10:59:16.885Z,2004.00
2018-08-12T11:00:16.820Z,1772.00
2018-08-12T11:01:16.820Z,1472.00
2018-08-12T11:02:16.833Z,2044.00
2018-08-12T11:03:16.811Z,812.00
2018-08-12T11:04:16.805Z,2028.00
2018-08-12T11:05:16.801Z,2052.00
2018-08-12T11:06:16.802Z,1380.00
2018-08-12T11:07:16.801Z,688.00
2018-08-12T11:08:16.782Z,2024.00
2018-08-12T11:09:16.779Z,2024.00
2018-08-12T11:10:16.777Z,2040.00
2018-08-12T11:11:16.775Z,1508.00
2018-08-12T11:12:16.839Z,2032.00
2018-08-12T11:13:16.766Z,1972.00
2018-08-12T11:14:16.762Z,1984.00
2018-08-12T11:15:16.752Z,1996.00
2018-08-12T11:16:16.749Z,2044.00
2018-08-12T11:17:16.748Z,2048.00
2018-08-12T11:18:16.739Z,2108.00
2018-08-12T11:19:16.739Z,2100.00
2018-08-12T11:20:16.726Z,2084.00
2018-08-12T11:21:16.727Z,2052.00
2018-08-12T11:22:16.726Z,2068.00
2018-08-12T11:23:16.719Z,2088.00
2018-08-12T11:24:16.714Z,2076.00
2018-08-12T11:25:16.716Z,2068.00
2018-08-12T11:26:16.710Z,2092.00
2018-08-12T11:27:16.706Z,2124.00
2018-08-12T11:28:16.697Z,2120.00
2018-08-12T11:29:16.693Z,2116.00
2018-08-12T11:30:16.695Z,2108.00
2018-08-12T11:31:16.693Z,2132.00
2018-08-12T11:32:16.686Z,2096.00
2018-08-12T11:33:16.678Z,2092.00
2018-08-12T11:34:16.674Z,2132.00
2018-08-12T11:35:16.667Z,2168.00
2018-08-12T11:36:16.662Z,2176.00
2018-08-12T11:37:16.660Z,2200.00
2018-08-12T11:38:16.655Z,2216.00
2018-08-12T11:39:16.655Z,2248.00
2018-08-12T11:40:16.653Z,2088.00
2018-08-12T11:41:16.720Z,1596.00
2018-08-12T11:42:16.642Z,1196.00
2018-08-12T11:43:16.639Z,684.00
2018-08-12T11:44:16.630Z,612.00
2018-08-12T11:45:16.635Z,544.00
2018-08-12T11:46:16.636Z,516.00
2018-08-12T11:47:16.626Z,500.00
2018-08-12T11:48:16.619Z,516.00
2018-08-12T11:49:16.615Z,592.00
2018-08-12T11:50:16.612Z,496.00
2018-08-12T11:51:16.608Z,512.00
2018-08-12T11:52:16.603Z,560.00
2018-08-12T11:53:16.602Z,656.00
2018-08-12T11:54:16.604Z,2480.00
2018-08-12T11:55:16.588Z,2088.00
2018-08-12T11:56:16.594Z,2472.00
2018-08-12T11:57:16.583Z,2280.00
2018-08-12T11:58:16.579Z,2512.00
2018-08-12T11:59:16.581Z,2468.00
2018-08-12T12:00:16.572Z,2468.00
2018-08-12T12:01:16.569Z,2452.00
2018-08-12T12:02:16.628Z,2428.00
2018-08-12T12:03:16.561Z,2436.00
2018-08-12T12:04:16.604Z,2432.00
2018-08-12T12:05:16.552Z,2468.00
2018-08-12T12:06:16.562Z,2448.00
2018-08-12T12:07:16.544Z,2440.00
2018-08-12T12:08:16.546Z,916.00
2018-08-12T12:09:16.535Z,1440.00
2018-08-12T12:10:16.537Z,1968.00
2018-08-12T12:11:16.529Z,1308.00
2018-08-12T12:12:16.529Z,516.00
2018-08-12T12:13:16.524Z,548.00
2018-08-12T12:14:16.526Z,2212.00
2018-08-12T12:15:16.515Z,2116.00
2018-08-12T12:16:16.511Z,2260.00
2018-08-12T12:17:16.516Z,856.00
2018-08-12T12:18:16.506Z,580.00
2018-08-12T12:19:16.503Z,580.00
2018-08-12T12:20:16.493Z,568.00
2018-08-12T12:21:16.494Z,548.00
2018-08-12T12:22:16.490Z,500.00
2018-08-12T12:23:16.483Z,492.00
2018-08-12T12:24:16.480Z,512.00
2018-08-12T12:25:16.480Z,520.00
2018-08-12T12:26:16.479Z,552.00
2018-08-12T12:27:16.471Z,728.00
2018-08-12T12:28:16.460Z,2708.00
2018-08-12T12:29:16.460Z,2728.00
2018-08-12T12:30:16.454Z,2800.00
2018-08-12T12:31:16.453Z,2196.00
2018-08-12T12:32:16.449Z,1612.00
2018-08-12T12:33:16.440Z,1272.00
2018-08-12T12:34:16.444Z,2748.00
2018-08-12T12:35:16.440Z,1256.00
2018-08-12T12:36:16.432Z,744.00
2018-08-12T12:37:16.434Z,636.00
2018-08-12T12:38:16.427Z,572.00
2018-08-12T12:39:16.422Z,528.00
2018-08-12T12:40:16.419Z,508.00
2018-08-12T12:41:16.415Z,536.00